Time;durP1;ratioP1;P1;durP2;ratioP2;P2;SDS_P1;SDS_P2;PMS_P1;PMS_P2;Temp;Humidity;BMP_temperature;BMP_pressure;BME280_temperature;BME280_humidity;BME280_pressure;Samples;Min_cycle;Max_cycle;Signal;HPM_P1;HPM_P2
2023/01/09 00:00:33;;;;;;;3.17;1.77;;;;;;;8.10;66.71;99395.34;4911741;28;97012;-53
2023/01/09 00:02:58;;;;;;;1.20;1.10;;;;;;;8.09;66.68;99390.41;4909633;28;96670;-50
2023/01/09 00:05:24;;;;;;;1.30;1.20;;;;;;;8.11;66.87;99385.16;4909435;28;97097;-50
2023/01/09 00:07:49;;;;;;;2.50;1.17;;;;;;;8.13;66.76;99371.69;4913558;28;97011;-49
2023/01/09 00:10:15;;;;;;;1.47;1.20;;;;;;;8.17;67.04;99369.44;4914143;28;97147;-50
2023/01/09 00:12:41;;;;;;;1.57;1.47;;;;;;;8.21;66.75;99358.97;4912223;28;97006;-50
2023/01/09 00:15:07;;;;;;;1.57;1.47;;;;;;;8.23;66.73;99359.22;4917882;28;96699;-50
2023/01/09 00:17:32;;;;;;;2.83;1.20;;;;;;;8.28;66.78;99364.66;4917773;28;96847;-51
2023/01/09 00:19:57;;;;;;;1.30;1.20;;;;;;;8.33;66.78;99360.41;4913240;28;97207;-51
2023/01/09 00:22:24;;;;;;;1.30;1.20;;;;;;;8.36;66.82;99345.69;4914584;28;96860;-50
2023/01/09 00:24:49;;;;;;;2.97;1.23;;;;;;;8.38;66.61;99345.94;4918897;28;97559;-50
2023/01/09 00:27:15;;;;;;;2.23;1.20;;;;;;;8.39;66.81;99346.69;4913074;28;96927;-50
2023/01/09 00:29:40;;;;;;;2.10;1.80;;;;;;;8.43;66.86;99341.66;4913021;28;97552;-49
2023/01/09 00:32:09;;;;;;;1.37;1.27;;;;;;;8.47;66.98;99331.19;4913030;28;97079;-50
2023/01/09 00:34:36;;;;;;;1.43;1.33;;;;;;;8.49;67.00;99331.41;4912594;28;97153;-50
2023/01/09 00:37:02;;;;;;;1.40;1.27;;;;;;;8.54;67.12;99338.84;4914047;28;97025;-50
2023/01/09 00:39:28;;;;;;;2.07;1.07;;;;;;;8.59;67.00;99335.31;4913348;28;97208;-52
2023/01/09 00:41:57;;;;;;;1.00;1.00;;;;;;;8.61;67.16;99324.56;4910309;28;96895;-50
2023/01/09 00:44:28;;;;;;;2.80;1.50;;;;;;;8.65;67.09;99322.31;4912240;28;96707;-50
2023/01/09 00:47:06;;;;;;;1.00;1.00;;;;;;;8.70;66.93;99325.00;4914674;28;97074;-51
2023/01/09 00:49:34;;;;;;;1.20;1.20;;;;;;;8.72;66.98;99333.47;4909795;28;96629;-52
2023/01/09 00:52:00;;;;;;;0.83;0.83;;;;;;;8.74;67.33;99328.22;4910957;28;98832;-50
2023/01/09 00:54:27;;;;;;;1.17;1.17;;;;;;;8.79;67.30;99330.16;4913762;28;97756;-50
2023/01/09 00:56:54;;;;;;;0.87;0.87;;;;;;;8.84;67.30;99318.41;4909789;28;97291;-49
2023/01/09 00:59:20;;;;;;;1.00;1.00;;;;;;;8.92;67.27;99321.31;4913640;28;97038;-50
2023/01/09 01:01:45;;;;;;;1.10;1.00;;;;;;;8.97;67.14;99317.78;4910077;28;97366;-53
2023/01/09 01:09:39;;;;;;;1.23;0.90;;;;;;;8.99;67.58;99301.56;4915730;28;97048;-50
2023/01/09 01:12:05;;;;;;;1.23;1.13;;;;;;;9.00;67.38;99301.03;4909455;28;97297;-51
2023/01/09 01:14:33;;;;;;;1.20;1.10;;;;;;;9.04;67.43;99298.03;4913686;28;97199;-51
2023/01/09 01:16:58;;;;;;;2.53;1.00;;;;;;;9.06;67.32;99292.78;4913890;28;97041;-50
2023/01/09 01:19:23;;;;;;;1.80;1.20;;;;;;;9.06;67.30;99288.00;4911526;28;96816;-51
2023/01/09 01:21:49;;;;;;;3.53;1.23;;;;;;;9.07;67.32;99294.25;4919830;28;96887;-50
2023/01/09 01:24:18;;;;;;;2.40;0.90;;;;;;;9.07;67.62;99288.75;4916502;28;97229;-49
2023/01/09 01:26:44;;;;;;;1.13;0.87;;;;;;;9.06;67.31;99293.50;4912123;28;97012;-50
2023/01/09 01:29:09;;;;;;;1.10;1.10;;;;;;;9.06;67.47;99287.28;4911266;28;97133;-50
2023/01/09 01:31:34;;;;;;;0.97;0.97;;;;;;;9.06;67.48;99287.28;4916711;28;97089;-50
2023/01/09 01:34:00;;;;;;;1.30;1.20;;;;;;;9.10;67.67;99276.00;4912526;28;97224;-49
2023/01/09 01:36:25;;;;;;;1.40;0.93;;;;;;;9.14;67.54;99274.47;4913472;28;96928;-52
2023/01/09 01:38:50;;;;;;;1.00;0.90;;;;;;;9.17;67.68;99280.94;4909937;28;96856;-49
2023/01/09 01:41:28;;;;;;;1.10;1.00;;;;;;;9.19;67.62;99281.16;4911820;28;97337;-50
2023/01/09 01:44:02;;;;;;;1.00;1.00;;;;;;;9.19;67.77;99278.41;4911894;28;97471;-50
2023/01/09 01:46:29;;;;;;;1.03;0.80;;;;;;;9.23;67.78;99273.38;4920036;28;97059;-51
2023/01/09 01:49:09;;;;;;;0.80;0.80;;;;;;;9.26;67.87;99273.06;4912900;28;96929;-51
2023/01/09 01:51:39;;;;;;;2.17;1.00;;;;;;;9.30;67.74;99272.81;4914467;28;97098;-51
2023/01/09 01:54:13;;;;;;;1.17;1.07;;;;;;;9.34;67.75;99268.50;4909995;28;97149;-50
2023/01/09 01:56:45;;;;;;;2.10;1.00;;;;;;;9.39;67.90;99264.22;4908002;28;96563;-50
2023/01/09 01:59:29;;;;;;;1.20;1.20;;;;;;;9.42;68.09;99268.66;4910960;28;97002;-50
2023/01/09 02:01:59;;;;;;;0.70;0.70;;;;;;;9.46;67.95;99269.09;4915805;28;97144;-52
2023/01/09 02:04:26;;;;;;;0.70;0.70;;;;;;;9.50;67.98;99270.28;4910114;28;96842;-52
2023/01/09 02:06:53;;;;;;;0.90;0.90;;;;;;;9.55;67.91;99271.50;4912825;28;96991;-52
2023/01/09 02:09:21;;;;;;;1.47;0.80;;;;;;;9.57;67.96;99274.44;4914295;28;97144;-51
2023/01/09 02:11:51;;;;;;;1.10;1.00;;;;;;;9.60;68.10;99276.91;4907090;28;98626;-49
2023/01/09 02:14:23;;;;;;;0.90;0.90;;;;;;;9.65;68.02;99276.09;4916885;28;97220;-50
2023/01/09 02:17:03;;;;;;;0.73;0.73;;;;;;;9.69;68.21;99276.56;4912404;28;97255;-50
2023/01/09 02:19:47;;;;;;;0.70;0.70;;;;;;;9.75;68.40;99281.97;4910182;28;97039;-50
2023/01/09 02:22:24;;;;;;;0.80;0.80;;;;;;;9.77;68.10;99282.94;4910568;28;97265;-50
2023/01/09 02:25:24;;;;;;;0.93;0.93;;;;;;;9.78;68.69;99278.91;4915146;28;97001;-50
2023/01/09 02:28:11;;;;;;;0.97;0.97;;;;;;;9.82;68.08;99270.38;4904806;28;96959;-49
2023/01/09 02:30:45;;;;;;;1.00;1.00;;;;;;;9.82;68.28;99282.13;4908957;28;96795;-51
2023/01/09 02:33:13;;;;;;;0.70;0.70;;;;;;;9.86;68.34;99278.31;4911154;28;97821;-51
2023/01/09 02:35:44;;;;;;;0.70;0.70;;;;;;;9.89;68.27;99277.28;4908981;28;97237;-51
2023/01/09 02:38:34;;;;;;;1.13;1.03;;;;;;;9.92;68.62;99268.75;4910476;28;97181;-51
2023/01/09 02:41:10;;;;;;;1.13;0.90;;;;;;;9.95;68.41;99266.97;4923956;28;97208;-50
2023/01/09 02:43:35;;;;;;;0.70;0.70;;;;;;;9.96;68.19;99271.22;4912127;28;97426;-51
2023/01/09 02:46:00;;;;;;;1.17;1.17;;;;;;;9.97;68.32;99262.44;4911239;28;97099;-50
2023/01/09 02:48:26;;;;;;;0.60;0.50;;;;;;;10.02;68.37;99256.13;4911463;28;97078;-51
2023/01/09 02:51:05;;;;;;;0.70;0.70;;;;;;;10.03;68.44;99251.34;4909788;28;97285;-50
2023/01/09 02:53:46;;;;;;;0.70;0.70;;;;;;;10.03;68.66;99252.09;4915988;28;96752;-52
2023/01/09 02:56:30;;;;;;;1.73;0.90;;;;;;;10.04;68.45;99244.59;4910175;28;97366;-51
2023/01/09 02:59:14;;;;;;;0.60;0.60;;;;;;;10.05;68.60;99246.81;4910779;28;97362;-51
2023/01/09 03:01:50;;;;;;;2.10;0.90;;;;;;;10.06;68.42;99253.81;4909994;28;97057;-50
2023/01/09 03:04:38;;;;;;;0.97;0.97;;;;;;;10.09;68.56;99247.25;4906874;28;96799;-51
2023/01/09 03:07:12;;;;;;;0.80;0.80;;;;;;;10.14;68.56;99242.97;4912638;28;97123;-51
2023/01/09 03:09:41;;;;;;;0.70;0.70;;;;;;;10.14;68.40;99237.47;4912121;28;97091;-51
2023/01/09 03:12:08;;;;;;;1.03;0.90;;;;;;;10.14;68.64;99240.97;4908202;28;96853;-52
2023/01/09 03:14:40;;;;;;;0.80;0.80;;;;;;;10.16;68.53;99240.44;4912309;28;97279;-50
2023/01/09 03:17:11;;;;;;;1.00;0.77;;;;;;;10.20;68.59;99238.88;4911704;28;96805;-51
2023/01/09 03:19:36;;;;;;;0.90;0.70;;;;;;;10.21;68.57;99240.38;4911567;28;96938;-52
2023/01/09 03:22:02;;;;;;;2.30;0.80;;;;;;;10.23;68.64;99239.84;4910437;28;96863;-50
2023/01/09 03:24:28;;;;;;;1.07;0.93;;;;;;;10.26;68.58;99238.81;4915551;28;97113;-51
2023/01/09 03:26:54;;;;;;;1.43;0.90;;;;;;;10.29;68.62;99235.72;4909401;28;96924;-50
2023/01/09 03:29:20;;;;;;;1.03;0.93;;;;;;;10.32;68.58;99236.69;4912760;28;97209;-51
2023/01/09 03:31:45;;;;;;;0.80;0.80;;;;;;;10.36;68.49;99231.63;4913188;28;97267;-53
2023/01/09 03:34:11;;;;;;;4.57;1.10;;;;;;;10.36;68.62;99235.13;4906686;28;97931;-52
2023/01/09 03:36:36;;;;;;;3.57;1.03;;;;;;;10.38;68.48;99232.59;4908940;28;97471;-51
2023/01/09 03:39:02;;;;;;;3.37;0.80;;;;;;;10.39;68.37;99227.84;4909514;28;97246;-51
2023/01/09 03:41:27;;;;;;;3.50;1.00;;;;;;;10.40;68.45;99227.31;4908608;28;96978;-55
2023/01/09 03:43:52;;;;;;;1.67;0.70;;;;;;;10.40;68.53;99221.06;4911939;28;96835;-51
2023/01/09 03:46:18;;;;;;;1.00;0.73;;;;;;;10.41;68.47;99223.31;4914425;28;97123;-51
2023/01/09 03:48:43;;;;;;;1.17;1.07;;;;;;;10.42;68.48;99219.28;4913787;28;97156;-50
2023/01/09 03:51:09;;;;;;;1.00;0.90;;;;;;;10.43;68.50;99220.03;4914100;28;97214;-51
2023/01/09 03:53:34;;;;;;;0.80;0.80;;;;;;;10.44;68.54;99222.22;4915320;28;97365;-52
2023/01/09 03:55:59;;;;;;;0.70;0.70;;;;;;;10.44;68.50;99227.72;4911858;28;96694;-50
2023/01/09 03:58:25;;;;;;;0.73;0.73;;;;;;;10.43;68.49;99237.25;4912164;28;96875;-51
2023/01/09 04:00:56;;;;;;;0.70;0.67;;;;;;;10.42;68.61;99233.03;4918793;28;97352;-51
2023/01/09 04:03:21;;;;;;;0.73;0.73;;;;;;;10.45;68.63;99239.47;4914314;28;96745;-50
2023/01/09 04:05:48;;;;;;;1.10;0.90;;;;;;;10.45;68.58;99236.72;4910833;28;97162;-51
2023/01/09 04:08:14;;;;;;;0.80;0.70;;;;;;;10.45;68.67;99231.97;4916112;28;96720;-51
2023/01/09 04:10:49;;;;;;;0.87;0.87;;;;;;;10.46;68.70;99225.19;4915893;28;96713;-50
2023/01/09 04:13:14;;;;;;;0.83;0.80;;;;;;;10.44;68.72;99219.47;4912584;28;97491;-51
2023/01/09 04:15:40;;;;;;;0.90;0.90;;;;;;;10.44;68.72;99213.28;4917140;28;98346;-51
2023/01/09 04:18:05;;;;;;;1.33;0.60;;;;;;;10.43;68.93;99220.78;4912723;28;97239;-51
2023/01/09 04:20:31;;;;;;;3.27;1.10;;;;;;;10.45;68.80;99222.97;4911590;28;97283;-51
2023/01/09 04:22:58;;;;;;;0.67;0.67;;;;;;;10.44;68.88;99216.72;4914681;28;96913;-51
2023/01/09 04:25:23;;;;;;;0.73;0.73;;;;;;;10.44;68.74;99222.22;4911400;28;97191;-50
2023/01/09 04:27:49;;;;;;;0.63;0.60;;;;;;;10.49;68.91;99220.66;4912758;28;96928;-51
2023/01/09 04:30:14;;;;;;;0.97;0.80;;;;;;;10.50;68.90;99214.66;4919784;28;97398;-51
2023/01/09 04:32:39;;;;;;;0.60;0.60;;;;;;;10.51;68.73;99210.63;4912804;28;97299;-50
2023/01/09 04:35:06;;;;;;;0.70;0.70;;;;;;;10.52;68.81;99217.63;4909391;28;96903;-50
2023/01/09 04:37:31;;;;;;;1.63;0.50;;;;;;;10.54;68.81;99212.31;4914036;28;97257;-51
2023/01/09 04:39:57;;;;;;;0.57;0.53;;;;;;;10.53;68.86;99213.59;4916433;28;96959;-51
2023/01/09 04:42:23;;;;;;;0.60;0.50;;;;;;;10.53;68.69;99223.84;4896565;28;97082;-50
2023/01/09 04:44:52;;;;;;;10.80;0.63;;;;;;;10.53;68.88;99224.59;4911060;28;97219;-50
2023/01/09 04:47:18;;;;;;;0.60;0.60;;;;;;;10.57;68.85;99226.28;4910868;28;96865;-50
2023/01/09 04:49:44;;;;;;;0.50;0.50;;;;;;;10.55;68.84;99224.78;4914290;28;96938;-50
2023/01/09 04:52:10;;;;;;;0.60;0.50;;;;;;;10.57;68.85;99218.78;4913888;28;98001;-51
2023/01/09 04:54:35;;;;;;;0.87;0.60;;;;;;;10.57;68.71;99219.50;4922853;28;96981;-50
2023/01/09 04:57:00;;;;;;;0.50;0.50;;;;;;;10.55;68.79;99216.53;4911407;28;97330;-50
2023/01/09 04:59:26;;;;;;;0.70;0.40;;;;;;;10.54;68.94;99214.34;4916473;28;97207;-50
2023/01/09 05:01:53;;;;;;;0.50;0.50;;;;;;;10.57;68.95;99224.28;4913642;28;97992;-49
2023/01/09 05:04:18;;;;;;;1.00;0.50;;;;;;;10.59;68.82;99223.75;4905348;28;97651;-51
2023/01/09 05:06:44;;;;;;;0.60;0.50;;;;;;;10.60;68.81;99222.47;4911440;28;97059;-50
2023/01/09 05:09:09;;;;;;;2.20;0.40;;;;;;;10.61;68.72;99229.47;4910830;28;96778;-50
2023/01/09 05:11:34;;;;;;;0.80;0.60;;;;;;;10.61;68.81;99229.47;4912957;28;97177;-50
2023/01/09 05:14:00;;;;;;;0.50;0.40;;;;;;;10.62;68.83;99234.44;4911233;28;97264;-50
2023/01/09 05:16:25;;;;;;;0.60;0.60;;;;;;;10.62;68.76;99236.44;4914012;28;97034;-50
2023/01/09 05:18:55;;;;;;;0.60;0.50;;;;;;;10.64;68.64;99244.94;4912761;28;97173;-51
2023/01/09 05:21:21;;;;;;;0.60;0.50;;;;;;;10.64;68.74;99236.69;4912357;28;97054;-50
2023/01/09 05:23:46;;;;;;;0.60;0.50;;;;;;;10.62;68.72;99233.69;4913874;28;97261;-50
2023/01/09 05:26:12;;;;;;;1.43;0.50;;;;;;;10.60;68.80;99238.97;4911856;28;96650;-51
2023/01/09 05:28:38;;;;;;;0.50;0.50;;;;;;;10.63;68.86;99244.19;4914760;28;97248;-50
2023/01/09 05:31:03;;;;;;;0.60;0.50;;;;;;;10.56;68.80;99253.03;4921609;28;97837;-50
2023/01/09 05:33:29;;;;;;;0.50;0.40;;;;;;;10.51;68.98;99246.38;4913198;28;97016;-49
2023/01/09 05:35:54;;;;;;;0.50;0.40;;;;;;;10.50;69.13;99258.66;4914224;28;96746;-50
2023/01/09 05:38:19;;;;;;;0.50;0.40;;;;;;;10.52;69.03;99249.88;4911042;28;96848;-50
2023/01/09 05:40:44;;;;;;;0.50;0.40;;;;;;;10.47;69.08;99254.19;4911791;28;97031;-50
2023/01/09 05:43:10;;;;;;;0.70;0.40;;;;;;;10.47;69.01;99256.94;4910867;28;97026;-49
2023/01/09 05:45:35;;;;;;;0.60;0.50;;;;;;;10.45;69.04;99270.47;4915328;28;96904;-49
2023/01/09 05:48:00;;;;;;;0.50;0.40;;;;;;;10.42;69.13;99268.75;4913966;28;96993;-50
2023/01/09 05:50:26;;;;;;;0.40;0.33;;;;;;;10.36;69.28;99273.59;4911279;28;97317;-50
2023/01/09 05:52:51;;;;;;;1.67;0.37;;;;;;;10.32;69.38;99269.69;4911462;28;96975;-50
2023/01/09 05:55:17;;;;;;;1.00;0.43;;;;;;;10.29;69.48;99276.22;4913194;28;97724;-50
2023/01/09 05:57:42;;;;;;;0.50;0.50;;;;;;;10.22;69.60;99283.06;4908934;28;97014;-50
2023/01/09 06:00:08;;;;;;;0.40;0.40;;;;;;;10.27;69.60;99290.50;4912977;28;97080;-50
2023/01/09 06:02:34;;;;;;;0.40;0.30;;;;;;;10.28;69.60;99280.25;4912972;28;96676;-50
2023/01/09 06:04:59;;;;;;;0.50;0.33;;;;;;;10.28;69.50;99286.50;4909051;28;97485;-51
2023/01/09 06:07:24;;;;;;;0.40;0.37;;;;;;;10.31;69.48;99279.94;4917550;28;97047;-51
2023/01/09 06:09:50;;;;;;;0.50;0.37;;;;;;;10.36;69.41;99275.59;4916990;28;96953;-51
2023/01/09 06:12:15;;;;;;;0.60;0.40;;;;;;;10.38;69.23;99278.56;4915582;28;97102;-50
2023/01/09 06:14:40;;;;;;;0.50;0.50;;;;;;;10.38;69.26;99278.56;4914370;28;96974;-50
2023/01/09 06:17:06;;;;;;;1.20;0.50;;;;;;;10.39;69.23;99286.31;4910225;28;96609;-49
2023/01/09 06:19:31;;;;;;;0.50;0.50;;;;;;;10.37;69.37;99288.84;4910437;28;97887;-50
2023/01/09 06:21:56;;;;;;;0.50;0.40;;;;;;;10.39;69.23;99302.06;4913264;28;97155;-49
2023/01/09 06:24:22;;;;;;;0.50;0.43;;;;;;;10.42;69.21;99301.00;4912807;28;96770;-50
2023/01/09 06:26:47;;;;;;;1.17;0.50;;;;;;;10.38;69.16;99303.31;4908928;28;97184;-50
2023/01/09 06:29:13;;;;;;;0.50;0.40;;;;;;;10.35;69.33;99307.13;4909704;28;97268;-50
2023/01/09 06:31:38;;;;;;;1.87;0.50;;;;;;;10.36;69.18;99303.84;4911963;28;97159;-50
2023/01/09 06:34:03;;;;;;;1.03;0.60;;;;;;;10.36;69.12;99314.84;4906548;28;96917;-49
2023/01/09 06:36:29;;;;;;;0.70;0.70;;;;;;;10.36;69.14;99303.84;4914530;28;96871;-51
2023/01/09 06:38:54;;;;;;;0.50;0.50;;;;;;;10.34;69.13;99306.38;4915451;28;97147;-51
2023/01/09 06:41:19;;;;;;;0.60;0.57;;;;;;;10.31;69.09;99304.66;4909287;28;97142;-50
2023/01/09 06:43:45;;;;;;;1.27;0.63;;;;;;;10.35;69.13;99315.38;4911523;28;96735;-50
2023/01/09 06:46:10;;;;;;;0.60;0.60;;;;;;;10.35;69.04;99324.34;4915252;28;97587;-50
2023/01/09 06:48:35;;;;;;;0.50;0.50;;;;;;;10.36;69.12;99330.59;4910769;28;97099;-48
2023/01/09 06:51:01;;;;;;;0.50;0.50;;;;;;;10.32;69.30;99339.16;4912402;28;98141;-50
2023/01/09 06:53:26;;;;;;;1.50;0.60;;;;;;;10.33;69.19;99343.38;4914796;28;96944;-50
2023/01/09 06:55:52;;;;;;;1.00;0.80;;;;;;;10.32;69.23;99350.13;4912196;28;96678;-48
2023/01/09 06:58:17;;;;;;;0.70;0.70;;;;;;;10.32;69.40;99347.38;4911784;28;97390;-49
2023/01/09 07:00:43;;;;;;;0.73;0.73;;;;;;;10.32;69.18;99355.63;4914905;28;97137;-49
2023/01/09 07:03:09;;;;;;;0.70;0.70;;;;;;;10.32;69.16;99363.13;4910469;28;96862;-49
2023/01/09 07:05:39;;;;;;;2.30;1.00;;;;;;;10.31;69.07;99358.91;4908452;28;96949;-49
2023/01/09 07:08:05;;;;;;;1.47;0.97;;;;;;;10.26;69.04;99365.97;4908294;28;97101;-49
2023/01/09 07:10:30;;;;;;;1.03;1.03;;;;;;;10.22;68.92;99371.00;4914951;28;97194;-49
2023/01/09 07:12:55;;;;;;;1.10;1.00;;;;;;;10.16;69.02;99372.34;4912229;28;97002;-51
2023/01/09 07:15:21;;;;;;;1.73;0.70;;;;;;;10.11;69.09;99379.41;4912667;28;96790;-51
2023/01/09 07:17:48;;;;;;;1.77;1.00;;;;;;;10.08;68.98;99385.16;4915550;28;97520;-49
2023/01/09 07:20:13;;;;;;;0.90;0.90;;;;;;;10.02;69.12;99390.75;4912006;28;97185;-49
2023/01/09 07:22:38;;;;;;;1.03;1.00;;;;;;;9.98;68.71;99400.53;4907973;28;96801;-50
2023/01/09 07:25:04;;;;;;;1.23;0.97;;;;;;;9.93;68.91;99398.59;4911471;28;96938;-50
2023/01/09 07:27:29;;;;;;;1.10;1.10;;;;;;;9.88;69.01;99402.91;4906848;28;97344;-49
2023/01/09 07:29:55;;;;;;;3.57;1.30;;;;;;;9.86;69.03;99404.66;4910472;28;96995;-50
2023/01/09 07:32:20;;;;;;;1.97;1.37;;;;;;;9.85;68.95;99403.19;4906983;28;97292;-51
2023/01/09 07:34:47;;;;;;;1.27;1.17;;;;;;;9.82;68.94;99404.97;4908766;28;96990;-49
2023/01/09 07:37:13;;;;;;;2.60;1.37;;;;;;;9.82;68.68;99410.47;4910936;28;97017;-49
2023/01/09 07:39:38;;;;;;;1.40;1.30;;;;;;;9.81;68.71;99417.94;4909917;28;96671;-51
2023/01/09 07:42:03;;;;;;;1.50;1.40;;;;;;;9.79;68.70;99419.72;4909289;28;97182;-48
2023/01/09 07:44:29;;;;;;;0.93;0.93;;;;;;;9.79;68.64;99422.47;4912077;28;97079;-49
2023/01/09 07:46:54;;;;;;;1.57;1.40;;;;;;;9.78;68.66;99434.72;4913384;28;96999;-49
2023/01/09 07:49:19;;;;;;;3.23;1.50;;;;;;;9.78;68.67;99437.47;4909526;28;96905;-49
2023/01/09 07:51:47;;;;;;;1.20;1.10;;;;;;;9.77;68.43;99444.22;4912959;28;96964;-52
2023/01/09 07:54:12;;;;;;;2.07;1.20;;;;;;;9.72;68.41;99450.50;4908772;28;97054;-49
2023/01/09 07:56:38;;;;;;;1.40;1.30;;;;;;;9.66;68.44;99441.59;4907671;28;97198;-49
2023/01/09 07:59:04;;;;;;;1.70;1.60;;;;;;;9.62;68.33;99469.34;4910036;28;97573;-49
2023/01/09 08:01:29;;;;;;;2.20;2.00;;;;;;;9.56;68.26;99443.19;4911387;28;96923;-50
2023/01/09 08:03:55;;;;;;;3.23;2.20;;;;;;;9.50;68.50;99453.50;4912170;28;96839;-49
2023/01/09 08:06:20;;;;;;;5.30;2.00;;;;;;;9.43;68.67;99457.53;4909071;28;97151;-49
2023/01/09 08:08:45;;;;;;;4.00;2.07;;;;;;;9.43;68.92;99457.53;4911063;28;98476;-49
2023/01/09 08:11:11;;;;;;;2.67;2.17;;;;;;;9.41;68.73;99464.81;4906335;28;97686;-49
2023/01/09 08:13:36;;;;;;;5.27;2.30;;;;;;;9.41;68.69;99459.31;4912147;28;97109;-50
2023/01/09 08:16:01;;;;;;;3.37;1.90;;;;;;;9.39;68.66;99467.31;4910073;28;97244;-49
2023/01/09 08:18:27;;;;;;;5.73;1.60;;;;;;;9.38;68.80;99471.31;4909930;28;97258;-49
2023/01/09 08:20:52;;;;;;;2.60;2.40;;;;;;;9.40;68.71;99469.53;4909105;28;96790;-49
2023/01/09 08:23:18;;;;;;;8.53;2.47;;;;;;;9.39;68.54;99468.03;4911954;28;97092;-49
2023/01/09 08:25:43;;;;;;;2.80;2.60;;;;;;;9.39;68.68;99476.28;4910785;28;97082;-49
2023/01/09 08:28:08;;;;;;;2.90;2.27;;;;;;;9.38;68.49;99477.53;4907216;28;97159;-49
2023/01/09 08:30:35;;;;;;;3.20;2.67;;;;;;;9.35;68.22;99481.31;4911603;28;96999;-49
2023/01/09 08:33:01;;;;;;;1.87;1.63;;;;;;;9.35;68.37;99488.81;4909964;28;97477;-49
2023/01/09 08:35:26;;;;;;;7.00;2.60;;;;;;;9.31;68.29;99499.28;4913680;28;97488;-49
2023/01/09 08:37:52;;;;;;;2.60;2.40;;;;;;;9.28;68.22;99501.09;4913327;28;96991;-49
2023/01/09 08:40:17;;;;;;;2.67;2.47;;;;;;;9.28;68.32;99501.09;4912328;28;97118;-50
2023/01/09 08:48:11;;;;;;;5.10;2.50;;;;;;;9.21;68.57;99506.38;4910404;28;97205;-50
2023/01/09 08:50:37;;;;;;;3.03;2.83;;;;;;;9.23;68.36;99509.34;4913266;28;97287;-52
2023/01/09 08:53:02;;;;;;;6.20;2.73;;;;;;;9.23;68.67;99514.84;4912885;28;96885;-50
2023/01/09 08:55:28;;;;;;;2.67;2.47;;;;;;;9.27;68.55;99510.56;4912842;28;97831;-49
2023/01/09 08:57:54;;;;;;;4.57;3.70;;;;;;;9.26;68.59;99511.09;4910467;28;97230;-49
2023/01/09 09:00:21;;;;;;;4.07;2.93;;;;;;;9.27;68.56;99501.56;4914674;28;97040;-49
2023/01/09 09:02:53;;;;;;;6.23;3.20;;;;;;;9.30;68.73;99498.56;4915327;28;97138;-49
2023/01/09 09:05:20;;;;;;;4.33;3.90;;;;;;;9.34;68.63;99501.03;4918187;28;96613;-49
2023/01/09 09:07:54;;;;;;;8.63;3.47;;;;;;;9.39;68.52;99503.72;4910776;28;98432;-50
2023/01/09 09:10:21;;;;;;;3.10;2.80;;;;;;;9.38;68.57;99498.75;4910886;28;97155;-50
2023/01/09 09:12:48;;;;;;;10.37;3.70;;;;;;;9.39;68.56;99503.00;4914296;28;97086;-48
2023/01/09 09:15:23;;;;;;;4.57;3.37;;;;;;;9.42;68.56;99499.22;4914087;28;97334;-49
2023/01/09 09:17:53;;;;;;;5.33;3.80;;;;;;;9.44;68.46;99502.19;4913547;28;96674;-50
2023/01/09 09:20:20;;;;;;;6.00;3.50;;;;;;;9.41;68.32;99508.72;4911666;28;96859;-49
2023/01/09 09:22:46;;;;;;;3.70;3.40;;;;;;;9.41;68.48;99509.47;4910725;28;97142;-49
2023/01/09 09:25:13;;;;;;;5.30;3.20;;;;;;;9.41;68.62;99512.22;4910945;28;97361;-49
2023/01/09 09:27:38;;;;;;;5.87;3.33;;;;;;;9.40;68.56;99516.19;4911146;28;96812;-49
2023/01/09 09:30:05;;;;;;;8.17;3.90;;;;;;;9.39;68.71;99505.75;4912324;28;96784;-50
2023/01/09 09:32:31;;;;;;;6.63;4.20;;;;;;;9.43;68.92;99511.69;4915191;28;96890;-51
2023/01/09 09:34:56;;;;;;;5.77;4.67;;;;;;;9.46;68.86;99521.63;4911439;28;96843;-50
2023/01/09 09:37:22;;;;;;;6.90;4.50;;;;;;;9.54;68.96;99522.56;4913804;28;97136;-49
2023/01/09 09:39:47;;;;;;;4.80;3.90;;;;;;;9.58;68.91;99518.31;4914638;28;97024;-50
2023/01/09 09:45:36;;;;;;;4.10;3.70;;;;;;;9.72;68.96;99527.41;4908471;28;96621;-50
2023/01/09 09:48:09;;;;;;;6.37;4.90;;;;;;;9.78;68.90;99525.38;4912988;28;96643;-50
2023/01/09 09:50:58;;;;;;;7.67;5.10;;;;;;;9.85;68.96;99530.25;4911899;28;96982;-49
2023/01/09 09:53:58;;;;;;;4.67;4.23;;;;;;;9.88;68.74;99526.50;4914457;28;96596;-50
2023/01/09 09:56:25;;;;;;;6.50;4.17;;;;;;;9.94;68.75;99531.97;4896427;28;97828;-50
2023/01/09 09:58:55;;;;;;;5.17;4.67;;;;;;;9.94;68.58;99529.94;4910516;28;97726;-50
2023/01/09 10:01:33;;;;;;;6.03;4.60;;;;;;;9.96;68.57;99535.66;4909597;28;97336;-50
2023/01/09 10:04:03;;;;;;;9.33;4.50;;;;;;;9.95;68.68;99527.94;4910418;28;96757;-50
2023/01/09 10:06:36;;;;;;;8.00;3.83;;;;;;;9.99;68.70;99540.13;4914403;28;98910;-50
2023/01/09 10:09:35;;;;;;;7.30;4.37;;;;;;;10.04;68.65;99535.84;4913001;28;96639;-49
2023/01/09 10:12:07;;;;;;;6.23;4.30;;;;;;;10.12;68.77;99542.28;4909283;28;98133;-49
2023/01/09 10:14:33;;;;;;;6.67;4.50;;;;;;;10.19;68.60;99544.44;4910859;28;97211;-49
2023/01/09 10:17:19;;;;;;;5.70;3.80;;;;;;;10.22;68.54;99532.44;4913252;28;97195;-50
2023/01/09 10:19:59;;;;;;;4.93;4.07;;;;;;;10.35;68.64;99533.25;4911814;28;97216;-49
2023/01/09 10:22:25;;;;;;;4.40;4.00;;;;;;;10.44;68.40;99532.91;4912052;28;97102;-49
2023/01/09 10:25:09;;;;;;;3.63;3.10;;;;;;;10.44;68.42;99530.16;4912066;28;96989;-48
2023/01/09 10:27:52;;;;;;;4.80;3.20;;;;;;;10.48;67.99;99530.59;4908449;28;97261;-49
2023/01/09 10:30:24;;;;;;;6.80;3.20;;;;;;;10.52;68.29;99530.31;4914451;28;96969;-49
2023/01/09 10:33:26;;;;;;;5.03;3.10;;;;;;;10.59;68.31;99523.50;4911903;28;96805;-50
2023/01/09 10:36:10;;;;;;;3.90;2.43;;;;;;;10.64;67.95;99519.94;4907600;28;96718;-49
2023/01/09 10:38:41;;;;;;;3.20;2.40;;;;;;;10.62;68.26;99517.69;4914220;28;96999;-49
2023/01/09 10:41:13;;;;;;;2.63;1.87;;;;;;;10.69;68.25;99527.34;4908111;28;97704;-49
2023/01/09 10:43:47;;;;;;;2.87;2.13;;;;;;;10.73;68.19;99527.78;4916189;28;96985;-49
2023/01/09 10:46:40;;;;;;;3.83;1.97;;;;;;;10.79;67.97;99528.47;4917111;28;97025;-49
2023/01/09 10:49:13;;;;;;;2.87;2.10;;;;;;;10.77;67.86;99525.50;4911414;28;97185;-49
2023/01/09 10:51:48;;;;;;;2.00;1.57;;;;;;;10.82;67.97;99528.19;4912328;28;97346;-48
2023/01/09 10:54:17;;;;;;;1.50;1.40;;;;;;;10.91;68.33;99529.81;4909029;28;96788;-49
2023/01/09 10:57:42;;;;;;;1.60;1.50;;;;;;;10.97;67.62;99530.47;4908419;28;97011;-49
2023/01/09 11:00:18;;;;;;;1.47;1.30;;;;;;;11.02;68.13;99527.66;4893631;28;97720;-48
2023/01/09 11:02:43;;;;;;;1.50;1.40;;;;;;;11.14;67.99;99528.22;4910253;28;98519;-48
2023/01/09 11:05:14;;;;;;;5.47;1.93;;;;;;;11.25;67.79;99530.81;4906174;28;97077;-49
2023/01/09 11:07:42;;;;;;;3.53;1.40;;;;;;;11.38;67.85;99524.63;4910927;28;97239;-49
2023/01/09 11:10:10;;;;;;;4.37;1.47;;;;;;;11.48;67.65;99517.44;4908284;28;97273;-48
2023/01/09 11:12:37;;;;;;;2.27;1.23;;;;;;;11.50;67.59;99518.41;4908850;28;97510;-51
2023/01/09 11:15:18;;;;;;;2.60;0.70;;;;;;;11.41;66.92;99518.78;4907719;28;97125;-49
2023/01/09 11:17:44;;;;;;;4.53;1.03;;;;;;;11.34;67.46;99530.41;4910433;28;96877;-49
2023/01/09 11:20:15;;;;;;;1.00;0.90;;;;;;;11.24;67.33;99518.31;4907733;28;96759;-48
2023/01/09 11:22:53;;;;;;;2.93;1.00;;;;;;;11.25;67.50;99525.28;4914234;28;96737;-49
2023/01/09 11:25:21;;;;;;;1.10;0.90;;;;;;;11.25;67.49;99517.03;4910124;28;96934;-49
2023/01/09 11:28:18;;;;;;;2.33;1.60;;;;;;;11.33;67.04;99523.44;4909045;28;96678;-49
2023/01/09 11:30:54;;;;;;;1.10;1.00;;;;;;;11.43;67.31;99521.75;4883081;28;97702;-49
2023/01/09 11:33:23;;;;;;;2.30;0.90;;;;;;;11.48;67.05;99523.69;4908640;28;97615;-49
2023/01/09 11:36:09;;;;;;;2.10;0.90;;;;;;;11.42;66.74;99523.03;4910930;28;96668;-49
2023/01/09 11:39:04;;;;;;;2.10;0.70;;;;;;;11.43;67.10;99529.28;4914735;28;96759;-49
2023/01/09 11:41:34;;;;;;;8.10;1.30;;;;;;;11.42;67.03;99525.81;4893130;28;97458;-50
2023/01/09 11:44:03;;;;;;;4.63;1.10;;;;;;;11.40;67.04;99525.56;4909895;28;97138;-50
2023/01/09 11:46:36;;;;;;;2.30;0.80;;;;;;;11.43;67.19;99527.28;4909509;28;96943;-50
2023/01/09 11:49:16;;;;;;;1.53;0.80;;;;;;;11.47;67.18;99529.69;4912943;28;97164;-49
2023/01/09 11:51:42;;;;;;;2.63;0.97;;;;;;;11.49;67.21;99524.44;4911667;28;97041;-49
2023/01/09 11:54:33;;;;;;;2.20;1.00;;;;;;;11.51;67.14;99528.13;4911272;28;97223;-49
2023/01/09 11:56:59;;;;;;;0.70;0.70;;;;;;;11.50;67.08;99523.91;4909472;28;96660;-50
2023/01/09 11:59:27;;;;;;;1.00;0.70;;;;;;;11.53;67.24;99530.38;4906168;28;97158;-50